Time;durP1;ratioP1;P1;durP2;ratioP2;P2;SDS_P1;SDS_P2;PMS_P1;PMS_P2;Temp;Humidity;BMP_temperature;BMP_pressure;BME280_temperature;BME280_humidity;BME280_pressure;Samples;Min_cycle;Max_cycle;Signal;HPM_P1;HPM_P2
2022/10/24 00:00:09;;;;;;;13.40;9.07;;;14.50;99.90;;;;;;5115139;27;20965;-68
2022/10/24 00:02:38;;;;;;;11.23;8.80;;;14.50;99.90;;;;;;5115212;27;20456;-69
2022/10/24 00:05:06;;;;;;;14.27;8.63;;;14.60;99.90;;;;;;5109728;27;20952;-68
2022/10/24 00:07:32;;;;;;;15.97;8.13;;;14.60;99.90;;;;;;5111176;27;20577;-69
2022/10/24 00:10:00;;;;;;;8.73;7.80;;;14.70;99.90;;;;;;5114189;27;20613;-68
2022/10/24 00:12:27;;;;;;;23.20;8.13;;;14.70;99.90;;;;;;5114829;27;20461;-68
2022/10/24 00:14:55;;;;;;;14.70;8.40;;;14.70;99.90;;;;;;5107333;27;21004;-68
2022/10/24 00:17:22;;;;;;;14.10;8.13;;;14.70;99.90;;;;;;5111213;28;20812;-68
2022/10/24 00:19:53;;;;;;;9.87;8.30;;;14.60;99.90;;;;;;5111012;28;20989;-68
2022/10/24 00:22:20;;;;;;;13.60;9.47;;;14.60;99.90;;;;;;5112978;28;20445;-67
2022/10/24 00:24:47;;;;;;;15.43;9.07;;;14.50;99.90;;;;;;5113852;28;20551;-68
2022/10/24 00:27:14;;;;;;;12.00;8.50;;;14.50;99.90;;;;;;5113653;28;21041;-68
2022/10/24 00:29:42;;;;;;;14.70;8.37;;;14.50;99.90;;;;;;5111808;28;20495;-69
2022/10/24 00:32:09;;;;;;;9.87;8.43;;;14.40;99.90;;;;;;5111324;28;20460;-69
2022/10/24 00:34:36;;;;;;;10.37;8.53;;;14.40;99.90;;;;;;5116384;28;20510;-68
2022/10/24 00:37:05;;;;;;;15.57;8.73;;;14.40;99.90;;;;;;5116606;27;20473;-70
2022/10/24 00:39:32;;;;;;;10.57;7.60;;;14.50;99.90;;;;;;5119051;27;20811;-68
2022/10/24 00:42:00;;;;;;;10.87;8.50;;;14.70;99.90;;;;;;5116765;27;20453;-68
2022/10/24 00:44:28;;;;;;;9.07;8.27;;;14.90;99.90;;;;;;5115096;27;20460;-69
2022/10/24 00:46:59;;;;;;;9.20;8.40;;;15.10;99.90;;;;;;5114721;27;20499;-68
2022/10/24 00:49:30;;;;;;;10.10;9.10;;;15.30;99.90;;;;;;5117504;27;20545;-68
2022/10/24 00:52:02;;;;;;;10.70;8.90;;;15.50;99.90;;;;;;5119295;27;21038;-68
2022/10/24 00:54:30;;;;;;;10.50;9.43;;;15.60;99.90;;;;;;5118585;27;20943;-68
2022/10/24 00:57:03;;;;;;;10.27;9.47;;;15.70;99.90;;;;;;5119039;27;20469;-69
2022/10/24 00:59:31;;;;;;;10.90;9.30;;;15.70;99.90;;;;;;5113417;27;20506;-71
2022/10/24 01:01:58;;;;;;;14.63;11.50;;;15.60;99.90;;;;;;5113364;27;20556;-69
2022/10/24 01:04:25;;;;;;;11.63;10.17;;;15.70;99.90;;;;;;5117507;27;20502;-68
2022/10/24 01:07:05;;;;;;;11.90;9.80;;;15.70;99.90;;;;;;5108954;27;20487;-68
2022/10/24 01:09:50;;;;;;;11.10;10.30;;;15.80;99.90;;;;;;5115040;27;21098;-68
2022/10/24 01:12:27;;;;;;;11.20;10.20;;;15.80;99.90;;;;;;5114581;27;20465;-68
2022/10/24 01:15:04;;;;;;;10.30;9.60;;;15.90;99.90;;;;;;5119870;27;20468;-70
2022/10/24 01:17:39;;;;;;;10.93;10.13;;;16.00;99.90;;;;;;5111857;27;20612;-69
2022/10/24 01:20:33;;;;;;;11.20;10.00;;;16.00;99.90;;;;;;5113643;27;20552;-70
2022/10/24 01:23:14;;;;;;;10.63;10.03;;;16.00;99.90;;;;;;5108455;27;20452;-69
2022/10/24 01:25:52;;;;;;;11.70;10.67;;;16.10;99.90;;;;;;5117201;27;20510;-69
2022/10/24 01:28:24;;;;;;;10.37;9.80;;;16.00;99.90;;;;;;5119046;27;20492;-70
2022/10/24 01:31:02;;;;;;;10.47;9.90;;;16.00;99.90;;;;;;5115988;28;20457;-69
2022/10/24 01:33:35;;;;;;;11.33;10.23;;;16.00;99.90;;;;;;5116535;28;20468;-68
2022/10/24 01:36:07;;;;;;;11.30;10.40;;;16.00;99.90;;;;;;5112652;28;20464;-69
2022/10/24 01:38:41;;;;;;;11.57;10.60;;;16.10;99.90;;;;;;5106164;28;20866;-68
2022/10/24 01:41:11;;;;;;;11.20;10.40;;;16.10;99.90;;;;;;5112596;28;20901;-69
2022/10/24 01:43:41;;;;;;;11.27;10.23;;;16.20;99.90;;;;;;5114047;28;20453;-68
2022/10/24 01:46:13;;;;;;;13.73;11.00;;;16.20;99.90;;;;;;5114857;28;21014;-70
2022/10/24 01:48:44;;;;;;;12.30;11.00;;;16.20;99.90;;;;;;5115523;28;20475;-70
2022/10/24 01:51:14;;;;;;;11.93;10.90;;;16.20;99.90;;;;;;5110804;28;20462;-69
2022/10/24 01:53:43;;;;;;;12.03;11.20;;;16.20;99.90;;;;;;5113522;28;20460;-68
2022/10/24 01:56:10;;;;;;;11.60;10.80;;;16.20;99.90;;;;;;5117727;28;20508;-69
2022/10/24 01:58:38;;;;;;;11.10;10.53;;;16.20;99.90;;;;;;5113085;28;20456;-69
2022/10/24 02:01:11;;;;;;;11.80;11.00;;;16.10;99.90;;;;;;5112427;28;20465;-69
2022/10/24 02:03:42;;;;;;;12.23;11.43;;;16.00;99.90;;;;;;5119523;28;20464;-69
2022/10/24 02:06:13;;;;;;;12.20;11.30;;;16.00;99.90;;;;;;5114826;28;20528;-69
2022/10/24 02:08:43;;;;;;;11.03;10.23;;;15.90;99.90;;;;;;5108279;28;20898;-70
2022/10/24 02:11:11;;;;;;;11.97;10.93;;;15.90;99.90;;;;;;5108134;28;20454;-72
2022/10/24 02:13:45;;;;;;;11.23;10.53;;;15.90;99.90;;;;;;5117163;28;21023;-70
2022/10/24 02:16:17;;;;;;;12.23;10.30;;;16.00;99.90;;;;;;5113370;28;20455;-70
2022/10/24 02:18:47;;;;;;;11.10;10.30;;;16.00;99.90;;;;;;5112438;28;20468;-70
2022/10/24 02:21:23;;;;;;;12.17;11.10;;;16.00;99.90;;;;;;5113565;28;20462;-71
2022/10/24 02:23:54;;;;;;;12.27;11.10;;;16.00;99.90;;;;;;5104975;28;20551;-70
2022/10/24 02:26:29;;;;;;;11.87;11.07;;;16.00;99.90;;;;;;5111881;28;20800;-70
2022/10/24 02:29:00;;;;;;;12.00;11.03;;;16.10;99.90;;;;;;5075698;28;131810;-70
2022/10/24 02:31:34;;;;;;;12.07;11.27;;;16.10;99.90;;;;;;5112005;27;20457;-72
2022/10/24 02:34:03;;;;;;;11.90;11.20;;;16.10;99.90;;;;;;5117187;27;20461;-70
2022/10/24 02:36:31;;;;;;;12.53;11.37;;;16.10;99.90;;;;;;5114358;27;20507;-70
2022/10/24 02:39:01;;;;;;;11.90;10.83;;;16.10;99.90;;;;;;5114133;27;20521;-70
2022/10/24 02:41:32;;;;;;;11.53;10.60;;;16.00;99.90;;;;;;5107598;27;20491;-71
2022/10/24 02:44:01;;;;;;;11.37;10.73;;;16.00;99.90;;;;;;5119495;27;20461;-70
2022/10/24 02:46:31;;;;;;;14.27;10.73;;;16.00;99.90;;;;;;5114563;27;20549;-73
2022/10/24 02:49:01;;;;;;;15.27;10.67;;;15.90;99.90;;;;;;5116328;27;20520;-73
2022/10/24 02:51:31;;;;;;;11.07;10.40;;;15.90;99.90;;;;;;5115769;27;20497;-70
2022/10/24 02:54:01;;;;;;;11.77;10.57;;;15.90;99.90;;;;;;5112868;27;20468;-70
2022/10/24 02:56:29;;;;;;;11.27;10.43;;;15.90;99.90;;;;;;5116499;27;20459;-70
2022/10/24 02:58:55;;;;;;;11.03;10.30;;;15.80;99.90;;;;;;5113423;27;20969;-70
2022/10/24 03:01:22;;;;;;;11.07;10.23;;;15.80;99.90;;;;;;5111888;27;20464;-69
2022/10/24 03:03:50;;;;;;;10.87;10.10;;;15.80;99.90;;;;;;5111727;27;20522;-72
2022/10/24 03:06:17;;;;;;;13.63;11.00;;;15.80;99.90;;;;;;5112329;27;20823;-70
2022/10/24 03:08:45;;;;;;;11.93;10.80;;;15.80;99.90;;;;;;5112191;27;20480;-69
2022/10/24 03:11:12;;;;;;;10.90;10.30;;;15.80;99.90;;;;;;5111413;27;20461;-71
2022/10/24 03:13:39;;;;;;;11.60;10.80;;;15.80;99.90;;;;;;5113290;27;20981;-69
2022/10/24 03:16:07;;;;;;;12.27;11.30;;;15.80;99.90;;;;;;5112082;27;20469;-70
2022/10/24 03:18:33;;;;;;;10.97;10.37;;;15.80;99.90;;;;;;5111812;27;21011;-70
2022/10/24 03:21:02;;;;;;;11.33;10.60;;;15.80;99.90;;;;;;5112770;27;20517;-70
2022/10/24 03:23:29;;;;;;;11.50;10.70;;;15.80;99.90;;;;;;5109252;27;20490;-68
2022/10/24 03:25:57;;;;;;;12.00;11.40;;;15.80;99.90;;;;;;5116246;27;20452;-69
2022/10/24 03:28:24;;;;;;;12.50;11.40;;;15.80;99.90;;;;;;5110330;27;20492;-70
2022/10/24 03:30:51;;;;;;;11.73;10.87;;;15.80;99.90;;;;;;5113336;27;20860;-69
2022/10/24 03:33:18;;;;;;;11.17;10.33;;;15.80;99.90;;;;;;5116221;27;20456;-71
2022/10/24 03:35:45;;;;;;;11.70;10.80;;;15.80;99.90;;;;;;5111386;27;21031;-69
2022/10/24 03:38:14;;;;;;;12.47;10.73;;;15.90;99.90;;;;;;5115629;27;20453;-72
2022/10/24 03:40:41;;;;;;;15.10;10.80;;;15.90;99.90;;;;;;5111515;27;20460;-69
2022/10/24 03:43:08;;;;;;;17.53;11.87;;;15.90;99.90;;;;;;5112253;27;20463;-69
2022/10/24 03:45:36;;;;;;;12.47;11.33;;;15.80;99.90;;;;;;5112508;27;20465;-69
2022/10/24 03:48:03;;;;;;;11.60;10.90;;;15.80;99.90;;;;;;5111642;27;20492;-69
2022/10/24 03:50:30;;;;;;;12.67;11.47;;;15.70;99.90;;;;;;5110400;27;20456;-72
2022/10/24 03:52:57;;;;;;;13.47;11.30;;;15.70;99.90;;;;;;5104659;28;20514;-69
2022/10/24 03:55:26;;;;;;;11.43;10.83;;;15.70;99.90;;;;;;5114455;27;20465;-70
2022/10/24 03:57:53;;;;;;;11.70;10.90;;;15.70;99.90;;;;;;5115258;27;20464;-72
2022/10/24 04:00:20;;;;;;;12.87;11.87;;;15.60;99.90;;;;;;5109897;27;20461;-68
2022/10/24 04:02:49;;;;;;;11.53;10.83;;;15.60;99.90;;;;;;5099782;27;20515;-68
2022/10/24 04:05:16;;;;;;;12.07;11.03;;;15.60;99.90;;;;;;5113626;27;20458;-69
2022/10/24 04:07:44;;;;;;;12.03;11.30;;;15.60;99.90;;;;;;5112245;28;20481;-69
2022/10/24 04:10:12;;;;;;;12.33;11.53;;;15.60;99.90;;;;;;5114435;27;20575;-69
2022/10/24 04:12:40;;;;;;;11.23;10.43;;;15.50;99.90;;;;;;5108034;27;20552;-70
2022/10/24 04:15:07;;;;;;;12.80;11.63;;;15.50;99.90;;;;;;5107566;28;20456;-69
2022/10/24 04:17:34;;;;;;;11.70;11.10;;;15.40;99.90;;;;;;5111752;27;20461;-71
2022/10/24 04:20:01;;;;;;;12.70;11.57;;;15.30;99.90;;;;;;5111572;27;20801;-69
2022/10/24 04:22:28;;;;;;;11.90;11.20;;;15.30;99.90;;;;;;5111069;28;20877;-72
2022/10/24 04:24:55;;;;;;;12.33;11.40;;;15.30;99.90;;;;;;5113604;28;20475;-69
2022/10/24 04:27:22;;;;;;;12.47;11.57;;;15.30;99.90;;;;;;5109443;28;20481;-71
2022/10/24 04:29:51;;;;;;;12.40;11.60;;;15.20;99.90;;;;;;5104976;28;20896;-69
2022/10/24 04:32:17;;;;;;;13.30;12.40;;;15.30;99.90;;;;;;5108673;28;21371;-69
2022/10/24 04:34:45;;;;;;;13.27;11.90;;;15.20;99.90;;;;;;5111885;28;20876;-69
2022/10/24 04:37:11;;;;;;;13.43;11.13;;;15.20;99.90;;;;;;5112735;28;20986;-70
2022/10/24 04:39:39;;;;;;;12.77;11.70;;;15.20;99.90;;;;;;5110353;28;20461;-71
2022/10/24 04:42:06;;;;;;;12.20;11.50;;;15.30;99.90;;;;;;5110543;28;20457;-69
2022/10/24 04:44:33;;;;;;;12.13;11.23;;;15.30;99.90;;;;;;5113014;28;21047;-69
2022/10/24 04:47:01;;;;;;;12.30;11.50;;;15.20;99.90;;;;;;5113059;28;20864;-71
2022/10/24 04:49:28;;;;;;;12.10;11.40;;;15.10;99.90;;;;;;5112457;28;20492;-70
2022/10/24 04:51:55;;;;;;;12.43;11.70;;;15.10;99.90;;;;;;5114388;28;20911;-70
2022/10/24 04:54:22;;;;;;;11.60;10.80;;;15.10;99.90;;;;;;5105502;28;20526;-69
2022/10/24 04:56:49;;;;;;;11.50;10.90;;;15.10;99.90;;;;;;5112939;28;20456;-70
2022/10/24 04:59:16;;;;;;;12.60;11.80;;;15.10;99.90;;;;;;5112305;28;20522;-72
2022/10/24 05:01:42;;;;;;;12.33;11.63;;;15.10;99.90;;;;;;5118358;28;20959;-69
2022/10/24 05:04:11;;;;;;;12.67;11.97;;;15.10;99.90;;;;;;5107764;28;20827;-69
2022/10/24 05:06:38;;;;;;;13.33;11.83;;;15.10;99.90;;;;;;5112156;28;20484;-68
2022/10/24 05:09:05;;;;;;;12.07;11.30;;;15.10;99.90;;;;;;5109523;28;20489;-71
2022/10/24 05:11:32;;;;;;;12.37;11.33;;;15.10;99.90;;;;;;5107280;28;20511;-69
2022/10/24 05:13:59;;;;;;;12.03;11.23;;;15.10;99.90;;;;;;5112838;27;20489;-69
2022/10/24 05:16:27;;;;;;;11.77;11.07;;;15.20;99.90;;;;;;5113471;28;20518;-71
2022/10/24 05:18:54;;;;;;;12.80;11.90;;;15.20;99.90;;;;;;5111305;28;20457;-71
2022/10/24 05:21:22;;;;;;;13.00;11.70;;;15.20;99.90;;;;;;5113638;27;20464;-69
2022/10/24 05:23:49;;;;;;;12.03;11.33;;;15.20;99.90;;;;;;5104441;27;20456;-69
2022/10/24 05:26:17;;;;;;;11.27;10.77;;;15.20;99.90;;;;;;5115416;27;20489;-69
2022/10/24 05:28:43;;;;;;;12.47;11.73;;;15.30;99.90;;;;;;5114847;27;20485;-69
2022/10/24 05:31:10;;;;;;;12.00;11.40;;;15.30;99.90;;;;;;5116824;27;20464;-70
2022/10/24 05:33:37;;;;;;;12.50;11.70;;;15.30;99.90;;;;;;5117228;27;20463;-69
2022/10/24 05:36:05;;;;;;;12.33;11.43;;;15.40;99.90;;;;;;5108861;27;20461;-68
2022/10/24 05:38:33;;;;;;;13.00;12.20;;;15.40;99.90;;;;;;5110534;27;20962;-69
2022/10/24 05:41:00;;;;;;;12.40;11.53;;;15.40;99.90;;;;;;5112567;27;20460;-69
2022/10/24 05:43:26;;;;;;;12.13;11.43;;;15.40;99.90;;;;;;5114344;27;20487;-72
2022/10/24 05:45:54;;;;;;;12.33;11.43;;;15.40;99.90;;;;;;5114783;27;20697;-69
2022/10/24 05:48:21;;;;;;;12.23;11.57;;;15.40;99.90;;;;;;5115458;27;20456;-70
2022/10/24 05:50:49;;;;;;;12.00;11.27;;;15.40;99.90;;;;;;5109762;27;20518;-72
2022/10/24 05:53:16;;;;;;;14.10;12.00;;;15.40;99.90;;;;;;5114199;27;20514;-69
2022/10/24 05:55:44;;;;;;;12.40;11.37;;;15.30;99.90;;;;;;5110907;27;20991;-69
2022/10/24 05:58:11;;;;;;;13.00;12.07;;;15.30;99.90;;;;;;5115401;27;20464;-71
2022/10/24 06:00:37;;;;;;;12.90;11.90;;;15.40;99.90;;;;;;5115300;27;20847;-69
2022/10/24 06:03:04;;;;;;;12.50;11.67;;;15.50;99.90;;;;;;5115618;27;20821;-69
2022/10/24 06:05:31;;;;;;;12.60;11.90;;;15.40;99.90;;;;;;5111389;27;20810;-70
2022/10/24 06:07:59;;;;;;;13.40;11.97;;;15.40;99.90;;;;;;5113586;27;20455;-71
2022/10/24 06:10:26;;;;;;;13.33;12.13;;;15.40;99.90;;;;;;5114382;27;20511;-69
2022/10/24 06:12:54;;;;;;;13.13;11.93;;;15.50;99.90;;;;;;5112369;27;20834;-71
2022/10/24 06:15:22;;;;;;;12.57;11.67;;;15.50;99.90;;;;;;5115280;27;20461;-68
2022/10/24 06:17:49;;;;;;;13.57;12.30;;;15.50;99.90;;;;;;5110064;27;20811;-69
2022/10/24 06:20:17;;;;;;;12.37;11.67;;;15.40;99.90;;;;;;5102674;27;20830;-69
2022/10/24 06:22:45;;;;;;;12.83;11.87;;;15.40;99.90;;;;;;5108283;27;20645;-72
2022/10/24 06:25:12;;;;;;;13.20;11.90;;;15.40;99.90;;;;;;5111484;27;20452;-70
2022/10/24 06:27:39;;;;;;;12.57;11.87;;;15.40;99.90;;;;;;5114716;27;20554;-72
2022/10/24 06:30:09;;;;;;;12.97;11.87;;;15.40;99.90;;;;;;5105942;27;20563;-69
2022/10/24 06:32:36;;;;;;;12.77;11.50;;;15.40;99.90;;;;;;5108695;27;20896;-70
2022/10/24 06:35:02;;;;;;;11.30;10.47;;;15.40;99.90;;;;;;5110871;27;20465;-71
2022/10/24 06:37:29;;;;;;;12.40;11.60;;;15.40;99.90;;;;;;5107057;27;20967;-70
2022/10/24 06:39:56;;;;;;;12.73;11.93;;;15.30;99.90;;;;;;5106413;27;20564;-69
2022/10/24 06:42:23;;;;;;;12.63;11.90;;;15.40;99.90;;;;;;5109229;27;20502;-70
2022/10/24 06:44:50;;;;;;;12.80;12.00;;;15.40;99.90;;;;;;5110269;27;20468;-69
2022/10/24 06:47:18;;;;;;;13.27;12.27;;;15.40;99.90;;;;;;5109990;27;20481;-70
2022/10/24 06:49:45;;;;;;;14.57;12.97;;;15.50;99.90;;;;;;5104568;27;21052;-72
2022/10/24 06:52:13;;;;;;;14.37;13.20;;;15.60;99.90;;;;;;5108686;27;20470;-70
2022/10/24 06:54:42;;;;;;;14.03;12.97;;;15.70;99.90;;;;;;5110167;27;20486;-70
2022/10/24 06:57:09;;;;;;;12.83;12.00;;;15.70;99.90;;;;;;5117065;27;20457;-69
2022/10/24 06:59:37;;;;;;;12.90;12.00;;;15.70;99.90;;;;;;5111993;27;20526;-70
2022/10/24 07:02:04;;;;;;;13.30;12.40;;;15.80;99.90;;;;;;5113464;27;20506;-72
2022/10/24 07:04:34;;;;;;;13.80;12.70;;;15.90;99.90;;;;;;5109115;27;20858;-71
2022/10/24 07:07:01;;;;;;;13.00;11.77;;;15.90;99.90;;;;;;5099032;27;20920;-70
2022/10/24 07:09:28;;;;;;;12.80;12.00;;;15.90;99.90;;;;;;5100372;27;20488;-70
2022/10/24 07:11:55;;;;;;;13.53;12.30;;;15.90;99.90;;;;;;5106715;27;20461;-72
2022/10/24 07:14:21;;;;;;;12.70;11.60;;;16.00;99.90;;;;;;5107572;27;20461;-70
2022/10/24 07:16:48;;;;;;;12.67;11.97;;;16.00;99.90;;;;;;5102760;27;20464;-70
2022/10/24 07:19:15;;;;;;;13.83;12.73;;;16.10;99.90;;;;;;5109089;27;20514;-71
2022/10/24 07:21:43;;;;;;;13.27;12.37;;;16.10;99.90;;;;;;5109367;27;20452;-72
2022/10/24 07:24:12;;;;;;;13.60;12.40;;;16.10;99.90;;;;;;5111969;27;20465;-72
2022/10/24 07:26:39;;;;;;;13.40;12.60;;;16.10;99.90;;;;;;5105921;27;20465;-70
2022/10/24 07:29:06;;;;;;;14.30;13.23;;;16.10;99.90;;;;;;5113396;27;20589;-70
2022/10/24 07:31:36;;;;;;;14.13;13.00;;;16.20;99.90;;;;;;5107382;27;20469;-70
2022/10/24 07:34:05;;;;;;;13.00;12.20;;;16.20;99.90;;;;;;5088281;27;20627;-70
2022/10/24 07:36:32;;;;;;;15.30;12.77;;;16.20;99.90;;;;;;5097757;27;20461;-71
2022/10/24 07:39:01;;;;;;;13.37;12.40;;;16.20;99.90;;;;;;5101725;27;20592;-71
2022/10/24 07:41:30;;;;;;;13.90;12.90;;;16.20;99.90;;;;;;5105264;27;20450;-72
2022/10/24 07:43:58;;;;;;;13.73;12.33;;;16.20;99.90;;;;;;5101256;27;20543;-70
2022/10/24 07:46:24;;;;;;;13.30;12.23;;;16.20;99.90;;;;;;5104129;27;20532;-72
2022/10/24 07:48:53;;;;;;;14.90;13.70;;;16.20;99.90;;;;;;5101987;27;20830;-70
2022/10/24 07:51:20;;;;;;;14.53;13.50;;;16.30;99.90;;;;;;5108287;27;20460;-71
2022/10/24 07:53:48;;;;;;;15.53;14.60;;;16.40;99.90;;;;;;5104418;27;20472;-70
2022/10/24 07:56:17;;;;;;;14.67;13.50;;;16.50;99.90;;;;;;5102559;27;20461;-73
2022/10/24 07:58:45;;;;;;;15.33;14.03;;;16.60;99.90;;;;;;5102471;27;20460;-69
2022/10/24 08:01:14;;;;;;;15.07;14.00;;;16.80;99.90;;;;;;5098541;27;20956;-72
2022/10/24 08:03:41;;;;;;;14.50;13.50;;;17.00;99.90;;;;;;5105000;28;20464;-71
2022/10/24 08:06:10;;;;;;;15.47;14.17;;;17.10;99.90;;;;;;5096817;28;20460;-70
2022/10/24 08:08:37;;;;;;;15.37;14.10;;;17.20;99.90;;;;;;5097972;27;20479;-71
2022/10/24 08:11:08;;;;;;;15.80;14.20;;;17.30;99.90;;;;;;5104306;28;20523;-71
2022/10/24 08:13:37;;;;;;;14.60;13.70;;;17.40;99.90;;;;;;5102362;27;20457;-71
2022/10/24 08:16:06;;;;;;;15.13;13.73;;;17.40;99.90;;;;;;5103535;27;20517;-71
2022/10/24 08:18:33;;;;;;;15.40;13.80;;;17.40;99.90;;;;;;5103283;27;20798;-69
2022/10/24 08:21:01;;;;;;;15.23;13.97;;;17.40;99.90;;;;;;5107057;27;21042;-71
2022/10/24 08:23:28;;;;;;;15.83;13.93;;;17.40;99.90;;;;;;5104486;28;20863;-72
2022/10/24 08:25:55;;;;;;;15.20;14.10;;;17.40;99.90;;;;;;5106550;28;20829;-73
2022/10/24 08:28:23;;;;;;;15.57;14.13;;;17.50;99.90;;;;;;5101285;28;20491;-71
2022/10/24 08:30:57;;;;;;;15.47;14.10;;;17.50;99.90;;;;;;5107518;28;20474;-70
2022/10/24 08:33:25;;;;;;;16.23;14.83;;;17.60;99.90;;;;;;5104785;28;20526;-70
2022/10/24 08:35:52;;;;;;;14.60;13.40;;;17.40;99.90;;;;;;5105877;28;20472;-70
2022/10/24 08:38:19;;;;;;;15.60;14.27;;;17.50;99.90;;;;;;5106631;28;20457;-71
2022/10/24 08:40:48;;;;;;;15.23;14.00;;;17.60;99.90;;;;;;5108260;28;20468;-71
2022/10/24 08:43:17;;;;;;;15.13;13.60;;;17.50;99.90;;;;;;5101081;28;20644;-71
2022/10/24 08:45:55;;;;;;;14.57;13.63;;;17.70;99.90;;;;;;5105290;28;20703;-71
2022/10/24 08:48:28;;;;;;;16.23;14.83;;;17.70;99.90;;;;;;5111934;28;20873;-70
2022/10/24 08:51:02;;;;;;;16.13;14.60;;;17.70;99.90;;;;;;5105512;28;20504;-72
2022/10/24 08:53:30;;;;;;;15.47;13.90;;;17.60;99.90;;;;;;5102028;28;20567;-70
2022/10/24 08:56:00;;;;;;;15.50;14.07;;;17.80;99.90;;;;;;5110286;27;20473;-74
2022/10/24 08:58:30;;;;;;;15.20;14.10;;;18.00;99.90;;;;;;5114204;27;20469;-71
2022/10/24 09:01:00;;;;;;;15.73;14.20;;;18.10;99.90;;;;;;5109149;27;20589;-69
2022/10/24 09:03:32;;;;;;;15.13;13.93;;;18.20;99.90;;;;;;5109006;27;20967;-70
2022/10/24 09:06:02;;;;;;;15.33;14.27;;;18.40;99.90;;;;;;5103277;27;20475;-71
2022/10/24 09:08:38;;;;;;;16.07;14.13;;;18.30;99.90;;;;;;5107743;27;20469;-72
2022/10/24 09:11:07;;;;;;;14.40;13.50;;;18.20;99.90;;;;;;5111629;27;21329;-72
2022/10/24 09:13:37;;;;;;;16.07;14.50;;;17.90;99.90;;;;;;5109566;27;20468;-70
2022/10/24 09:16:05;;;;;;;15.83;14.27;;;18.00;99.90;;;;;;5111609;27;20878;-69
2022/10/24 09:18:37;;;;;;;16.03;14.70;;;18.00;99.90;;;;;;5117104;27;20466;-70
2022/10/24 09:21:07;;;;;;;15.07;13.77;;;17.90;99.90;;;;;;5109692;27;20506;-70
2022/10/24 09:23:36;;;;;;;15.37;14.30;;;17.80;99.90;;;;;;5112963;27;20472;-72
2022/10/24 09:26:05;;;;;;;15.50;14.30;;;18.00;99.90;;;;;;5108624;27;20998;-72
2022/10/24 09:28:35;;;;;;;15.67;14.37;;;18.00;99.90;;;;;;5108048;27;20492;-71
2022/10/24 09:31:04;;;;;;;15.47;13.83;;;17.80;99.90;;;;;;5108218;27;20500;-68
2022/10/24 09:33:39;;;;;;;15.73;14.10;;;18.00;99.90;;;;;;5110518;27;20501;-69
2022/10/24 09:36:11;;;;;;;15.90;14.63;;;18.30;99.90;;;;;;5108354;27;20459;-72
2022/10/24 09:38:39;;;;;;;15.23;14.07;;;18.60;99.90;;;;;;5106390;27;20472;-69
2022/10/24 09:41:17;;;;;;;16.50;14.97;;;18.70;99.90;;;;;;5107139;27;21034;-71
2022/10/24 09:43:49;;;;;;;15.63;14.30;;;18.80;99.90;;;;;;5105982;27;20445;-69
2022/10/24 09:46:18;;;;;;;15.93;14.40;;;18.90;99.90;;;;;;5108906;27;20993;-69
2022/10/24 09:48:50;;;;;;;15.70;14.50;;;18.90;99.90;;;;;;5109291;27;20464;-68
2022/10/24 09:51:24;;;;;;;20.13;14.50;;;18.90;99.90;;;;;;5111526;27;20562;-68
2022/10/24 09:54:04;;;;;;;15.70;14.47;;;19.00;99.90;;;;;;5108552;27;20469;-68
2022/10/24 09:56:38;;;;;;;15.93;14.83;;;19.00;99.90;;;;;;5111672;27;20551;-68
2022/10/24 09:59:41;;;;;;;15.20;14.20;;;18.90;99.90;;;;;;5110372;27;20544;-69
2022/10/24 10:02:18;;;;;;;14.50;13.30;;;19.00;99.90;;;;;;5110235;27;20541;-70
2022/10/24 10:04:47;;;;;;;15.10;13.70;;;19.10;99.90;;;;;;5104390;27;20831;-69
2022/10/24 10:07:17;;;;;;;16.03;14.53;;;19.10;99.90;;;;;;5103751;27;21443;-71
2022/10/24 10:09:51;;;;;;;14.97;13.87;;;19.10;99.90;;;;;;5111074;27;20465;-68
2022/10/24 10:12:31;;;;;;;15.13;13.93;;;19.20;99.90;;;;;;5108390;27;20465;-68
2022/10/24 10:14:58;;;;;;;16.27;14.97;;;19.60;99.90;;;;;;5109878;27;20982;-71
2022/10/24 10:17:29;;;;;;;15.50;14.00;;;19.80;99.90;;;;;;5110226;27;20506;-68
2022/10/24 10:19:59;;;;;;;15.80;14.30;;;19.70;99.90;;;;;;5109753;27;20964;-68
2022/10/24 10:22:28;;;;;;;16.00;14.60;;;19.90;99.90;;;;;;5105776;27;20482;-68
2022/10/24 10:24:56;;;;;;;15.90;14.53;;;19.90;99.90;;;;;;5104155;27;20454;-68
2022/10/24 10:27:33;;;;;;;16.43;14.43;;;19.90;99.90;;;;;;5110240;27;20647;-68
2022/10/24 10:30:19;;;;;;;14.77;13.67;;;19.80;99.90;;;;;;5107431;27;20484;-70
2022/10/24 10:33:00;;;;;;;17.93;15.17;;;20.00;99.90;;;;;;5103474;27;20457;-71
2022/10/24 10:35:35;;;;;;;16.50;14.87;;;20.10;99.90;;;;;;5103869;27;20518;-68
2022/10/24 10:38:17;;;;;;;15.90;14.70;;;20.30;99.90;;;;;;5106455;27;20479;-70
2022/10/24 10:40:46;;;;;;;16.30;14.73;;;20.20;99.90;;;;;;5099753;27;20462;-71
2022/10/24 10:43:26;;;;;;;16.53;15.33;;;20.10;99.90;;;;;;5105473;27;20468;-68
2022/10/24 10:46:03;;;;;;;15.90;14.57;;;19.80;99.90;;;;;;5102047;27;20464;-70
2022/10/24 10:48:43;;;;;;;15.80;14.60;;;19.80;99.90;;;;;;5104591;27;20492;-68
2022/10/24 10:51:20;;;;;;;16.97;14.57;;;19.90;99.90;;;;;;5099558;28;20496;-70
2022/10/24 10:53:57;;;;;;;15.87;14.67;;;19.90;99.90;;;;;;5104440;27;20759;-71
2022/10/24 10:56:31;;;;;;;16.00;14.40;;;20.30;99.90;;;;;;5105425;27;20472;-70
2022/10/24 10:59:08;;;;;;;15.33;14.10;;;20.30;99.90;;;;;;5106178;27;20502;-69
2022/10/24 11:01:47;;;;;;;15.17;14.17;;;20.40;99.90;;;;;;5103122;27;20547;-69
2022/10/24 11:04:22;;;;;;;15.47;13.97;;;20.30;99.90;;;;;;5101932;27;21012;-72
2022/10/24 11:07:01;;;;;;;15.90;14.60;;;20.10;99.90;;;;;;5103028;27;20461;-70
2022/10/24 11:09:32;;;;;;;15.93;14.73;;;20.60;99.90;;;;;;5100938;27;20461;-69
2022/10/24 11:12:04;;;;;;;16.00;14.60;;;20.60;99.90;;;;;;5105876;27;20514;-71
2022/10/24 11:14:35;;;;;;;17.13;15.53;;;20.80;99.90;;;;;;5106001;27;20461;-69
2022/10/24 11:17:09;;;;;;;18.97;15.67;;;20.40;99.90;;;;;;5106461;27;21000;-68
2022/10/24 11:19:43;;;;;;;15.77;14.63;;;20.90;99.90;;;;;;5106038;28;20782;-70
2022/10/24 11:22:19;;;;;;;15.90;14.63;;;20.90;99.90;;;;;;5100793;27;20465;-70
2022/10/24 11:24:51;;;;;;;16.87;15.37;;;20.90;99.90;;;;;;5105309;27;20449;-69
2022/10/24 11:27:25;;;;;;;16.90;15.50;;;20.50;99.90;;;;;;5101538;27;20501;-70
2022/10/24 11:29:57;;;;;;;16.57;15.47;;;20.30;99.90;;;;;;5101747;27;20460;-70
2022/10/24 11:32:32;;;;;;;17.07;15.27;;;20.00;99.90;;;;;;5101820;27;20458;-70
2022/10/24 11:35:04;;;;;;;16.60;15.00;;;20.00;99.90;;;;;;5102027;27;20473;-70
2022/10/24 11:37:36;;;;;;;16.20;14.80;;;19.90;99.90;;;;;;5103304;27;20465;-70
2022/10/24 11:40:09;;;;;;;15.60;14.40;;;19.60;99.90;;;;;;5101832;27;20465;-70
2022/10/24 11:42:42;;;;;;;15.83;14.47;;;19.70;99.90;;;;;;5098246;27;20464;-69
2022/10/24 11:45:12;;;;;;;16.20;14.63;;;19.60;99.90;;;;;;5101765;27;20473;-73
2022/10/24 11:47:57;;;;;;;15.67;14.53;;;19.70;99.90;;;;;;5100733;27;20477;-70
2022/10/24 11:50:29;;;;;;;15.83;14.50;;;19.30;99.90;;;;;;5103011;27;20921;-70
2022/10/24 11:53:04;;;;;;;15.73;14.37;;;19.40;99.90;;;;;;5100843;27;20540;-71
2022/10/24 11:55:37;;;;;;;16.47;15.00;;;19.60;99.90;;;;;;5108654;27;20449;-71
2022/10/24 11:58:10;;;;;;;15.47;13.83;;;19.80;99.90;;;;;;5104578;27;20457;-71
2022/10/24 12:00:55;;;;;;;16.03;14.77;;;20.20;99.90;;;;;;5104320;27;21057;-71
2022/10/24 12:03:49;;;;;;;16.33;14.77;;;21.20;99.90;;;;;;5104501;27;20860;-71
2022/10/24 12:06:42;;;;;;;15.03;14.03;;;21.60;99.90;;;;;;5103261;27;20552;-70
2022/10/24 12:09:24;;;;;;;16.60;15.00;;;21.00;99.90;;;;;;5104285;27;20483;-71
2022/10/24 12:12:15;;;;;;;16.67;15.37;;;20.50;99.90;;;;;;5096254;27;20488;-71
2022/10/24 12:15:02;;;;;;;15.50;14.37;;;20.40;99.90;;;;;;5096244;28;20649;-72
2022/10/24 12:17:49;;;;;;;16.33;14.87;;;20.60;99.90;;;;;;5104861;27;20556;-71
2022/10/24 12:20:19;;;;;;;15.87;14.20;;;20.70;99.90;;;;;;5099357;28;20457;-71
2022/10/24 12:22:48;;;;;;;15.43;14.23;;;20.50;99.90;;;;;;5104193;28;20457;-71
2022/10/24 12:25:21;;;;;;;16.23;15.10;;;20.20;99.90;;;;;;5099124;28;20453;-72
2022/10/24 12:27:54;;;;;;;16.63;14.97;;;20.80;99.90;;;;;;5104431;28;20909;-71
2022/10/24 12:30:23;;;;;;;15.97;14.77;;;21.50;99.90;;;;;;5106217;27;20835;-73
2022/10/24 12:32:54;;;;;;;15.90;14.70;;;21.40;99.90;;;;;;5112822;27;20463;-73
2022/10/24 12:35:56;;;;;;;15.73;14.40;;;21.90;99.90;;;;;;5111976;27;20452;-71
2022/10/24 12:39:06;;;;;;;16.13;14.87;;;22.10;99.90;;;;;;5108543;27;20461;-71
2022/10/24 12:41:40;;;;;;;17.43;15.63;;;22.60;99.90;;;;;;5110037;27;20456;-75
2022/10/24 12:44:41;;;;;;;16.70;15.30;;;22.60;99.90;;;;;;5111769;27;20501;-71